sensor_id;sensor_type;location;lat;lon;timestamp;P1;durP1;ratioP1;P2;durP2;ratioP2
73747;SDS011;62056;52.130;5.428;2023-12-04T00:00:03;12.83;;;6.90;;
73747;SDS011;62056;52.130;5.428;2023-12-04T00:02:31;13.25;;;6.32;;
73747;SDS011;62056;52.130;5.428;2023-12-04T00:04:57;14.40;;;6.82;;
73747;SDS011;62056;52.130;5.428;2023-12-04T00:07:24;13.60;;;8.05;;
73747;SDS011;62056;52.130;5.428;2023-12-04T00:09:50;12.13;;;6.45;;
73747;SDS011;62056;52.130;5.428;2023-12-04T00:12:17;12.03;;;6.17;;
73747;SDS011;62056;52.130;5.428;2023-12-04T00:14:44;9.75;;;6.38;;
73747;SDS011;62056;52.130;5.428;2023-12-04T00:17:10;15.55;;;7.55;;
73747;SDS011;62056;52.130;5.428;2023-12-04T00:19:37;16.42;;;9.07;;
73747;SDS011;62056;52.130;5.428;2023-12-04T00:22:04;13.82;;;7.35;;
73747;SDS011;62056;52.130;5.428;2023-12-04T00:24:31;14.70;;;6.77;;
73747;SDS011;62056;52.130;5.428;2023-12-04T00:26:57;11.25;;;6.55;;
73747;SDS011;62056;52.130;5.428;2023-12-04T00:29:24;15.40;;;6.60;;
73747;SDS011;62056;52.130;5.428;2023-12-04T00:31:51;16.52;;;7.15;;
73747;SDS011;62056;52.130;5.428;2023-12-04T00:34:17;12.27;;;6.55;;
73747;SDS011;62056;52.130;5.428;2023-12-04T00:36:44;18.77;;;8.60;;
73747;SDS011;62056;52.130;5.428;2023-12-04T00:39:11;13.60;;;7.28;;
73747;SDS011;62056;52.130;5.428;2023-12-04T00:41:37;16.92;;;8.07;;
73747;SDS011;62056;52.130;5.428;2023-12-04T00:44:05;10.88;;;6.63;;
73747;SDS011;62056;52.130;5.428;2023-12-04T00:46:31;14.75;;;7.78;;
73747;SDS011;62056;52.130;5.428;2023-12-04T00:48:58;14.63;;;7.03;;
73747;SDS011;62056;52.130;5.428;2023-12-04T00:51:25;13.77;;;6.88;;
73747;SDS011;62056;52.130;5.428;2023-12-04T00:53:53;14.48;;;6.85;;
73747;SDS011;62056;52.130;5.428;2023-12-04T00:56:19;13.13;;;6.57;;
73747;SDS011;62056;52.130;5.428;2023-12-04T00:58:46;14.52;;;6.72;;
73747;SDS011;62056;52.130;5.428;2023-12-04T01:01:13;14.63;;;7.30;;
73747;SDS011;62056;52.130;5.428;2023-12-04T01:03:40;11.18;;;6.50;;
73747;SDS011;62056;52.130;5.428;2023-12-04T01:06:07;15.55;;;7.25;;
73747;SDS011;62056;52.130;5.428;2023-12-04T01:08:33;16.40;;;7.18;;
73747;SDS011;62056;52.130;5.428;2023-12-04T01:11:02;14.35;;;7.80;;
73747;SDS011;62056;52.130;5.428;2023-12-04T01:13:29;17.40;;;8.30;;
73747;SDS011;62056;52.130;5.428;2023-12-04T01:15:56;17.33;;;7.88;;
73747;SDS011;62056;52.130;5.428;2023-12-04T01:18:23;15.05;;;7.72;;
73747;SDS011;62056;52.130;5.428;2023-12-04T01:20:49;15.50;;;7.97;;
73747;SDS011;62056;52.130;5.428;2023-12-04T01:23:16;22.08;;;9.30;;
73747;SDS011;62056;52.130;5.428;2023-12-04T01:25:43;19.23;;;8.10;;
73747;SDS011;62056;52.130;5.428;2023-12-04T01:28:11;17.15;;;7.70;;
73747;SDS011;62056;52.130;5.428;2023-12-04T01:30:38;20.95;;;8.05;;
73747;SDS011;62056;52.130;5.428;2023-12-04T01:33:04;15.20;;;7.68;;
73747;SDS011;62056;52.130;5.428;2023-12-04T01:35:31;15.13;;;7.45;;
73747;SDS011;62056;52.130;5.428;2023-12-04T01:37:58;15.57;;;8.47;;
73747;SDS011;62056;52.130;5.428;2023-12-04T01:40:25;17.45;;;8.30;;
73747;SDS011;62056;52.130;5.428;2023-12-04T01:42:53;14.80;;;7.57;;
73747;SDS011;62056;52.130;5.428;2023-12-04T01:45:19;13.88;;;8.02;;
73747;SDS011;62056;52.130;5.428;2023-12-04T01:47:46;13.77;;;7.53;;
73747;SDS011;62056;52.130;5.428;2023-12-04T01:50:14;15.30;;;8.20;;
73747;SDS011;62056;52.130;5.428;2023-12-04T01:52:42;17.48;;;8.10;;
73747;SDS011;62056;52.130;5.428;2023-12-04T01:55:08;11.90;;;7.95;;
73747;SDS011;62056;52.130;5.428;2023-12-04T01:57:37;18.88;;;8.52;;
73747;SDS011;62056;52.130;5.428;2023-12-04T02:00:04;12.38;;;6.72;;
73747;SDS011;62056;52.130;5.428;2023-12-04T02:02:38;13.70;;;7.53;;
73747;SDS011;62056;52.130;5.428;2023-12-04T02:05:09;16.75;;;7.75;;
73747;SDS011;62056;52.130;5.428;2023-12-04T02:07:37;18.60;;;9.52;;
73747;SDS011;62056;52.130;5.428;2023-12-04T02:10:06;20.02;;;8.10;;
73747;SDS011;62056;52.130;5.428;2023-12-04T02:12:33;17.42;;;7.93;;
73747;SDS011;62056;52.130;5.428;2023-12-04T02:15:00;21.90;;;8.90;;
73747;SDS011;62056;52.130;5.428;2023-12-04T02:17:26;16.98;;;8.77;;
73747;SDS011;62056;52.130;5.428;2023-12-04T02:19:55;16.60;;;7.60;;
73747;SDS011;62056;52.130;5.428;2023-12-04T02:22:23;18.63;;;8.90;;
73747;SDS011;62056;52.130;5.428;2023-12-04T02:24:50;14.63;;;8.95;;
73747;SDS011;62056;52.130;5.428;2023-12-04T02:27:27;14.23;;;7.77;;
73747;SDS011;62056;52.130;5.428;2023-12-04T02:29:59;16.25;;;9.25;;
73747;SDS011;62056;52.130;5.428;2023-12-04T02:32:28;19.38;;;8.95;;
73747;SDS011;62056;52.130;5.428;2023-12-04T02:34:57;15.13;;;7.75;;
73747;SDS011;62056;52.130;5.428;2023-12-04T02:37:28;11.38;;;6.70;;
73747;SDS011;62056;52.130;5.428;2023-12-04T02:39:56;17.10;;;8.03;;
73747;SDS011;62056;52.130;5.428;2023-12-04T02:42:22;20.48;;;9.18;;
73747;SDS011;62056;52.130;5.428;2023-12-04T02:44:52;14.25;;;7.88;;
73747;SDS011;62056;52.130;5.428;2023-12-04T02:47:19;12.27;;;6.68;;
73747;SDS011;62056;52.130;5.428;2023-12-04T02:49:46;13.45;;;6.90;;
73747;SDS011;62056;52.130;5.428;2023-12-04T02:52:12;11.77;;;7.33;;
73747;SDS011;62056;52.130;5.428;2023-12-04T02:54:39;15.45;;;7.60;;
73747;SDS011;62056;52.130;5.428;2023-12-04T02:57:06;15.73;;;8.25;;
73747;SDS011;62056;52.130;5.428;2023-12-04T02:59:33;16.50;;;6.85;;
73747;SDS011;62056;52.130;5.428;2023-12-04T03:01:59;13.85;;;7.40;;
73747;SDS011;62056;52.130;5.428;2023-12-04T03:04:27;13.63;;;7.17;;
73747;SDS011;62056;52.130;5.428;2023-12-04T03:06:56;14.88;;;6.35;;
73747;SDS011;62056;52.130;5.428;2023-12-04T03:09:23;15.93;;;7.47;;
73747;SDS011;62056;52.130;5.428;2023-12-04T03:12:10;13.07;;;6.63;;
73747;SDS011;62056;52.130;5.428;2023-12-04T03:14:36;15.82;;;8.18;;
73747;SDS011;62056;52.130;5.428;2023-12-04T03:17:03;15.47;;;8.17;;
73747;SDS011;62056;52.130;5.428;2023-12-04T03:19:30;13.75;;;7.50;;
73747;SDS011;62056;52.130;5.428;2023-12-04T03:21:57;15.98;;;8.48;;
73747;SDS011;62056;52.130;5.428;2023-12-04T03:24:23;17.00;;;7.93;;
73747;SDS011;62056;52.130;5.428;2023-12-04T03:26:50;16.70;;;7.68;;
73747;SDS011;62056;52.130;5.428;2023-12-04T03:29:17;14.13;;;7.70;;
73747;SDS011;62056;52.130;5.428;2023-12-04T03:31:43;13.68;;;7.10;;
73747;SDS011;62056;52.130;5.428;2023-12-04T03:34:10;16.52;;;7.07;;
73747;SDS011;62056;52.130;5.428;2023-12-04T03:36:37;14.93;;;8.13;;
73747;SDS011;62056;52.130;5.428;2023-12-04T03:39:03;12.15;;;6.40;;
73747;SDS011;62056;52.130;5.428;2023-12-04T03:41:30;16.53;;;7.30;;
73747;SDS011;62056;52.130;5.428;2023-12-04T03:43:57;15.73;;;7.85;;
73747;SDS011;62056;52.130;5.428;2023-12-04T03:46:23;11.95;;;6.80;;
73747;SDS011;62056;52.130;5.428;2023-12-04T03:48:50;21.30;;;8.10;;
73747;SDS011;62056;52.130;5.428;2023-12-04T03:51:17;11.73;;;6.63;;
73747;SDS011;62056;52.130;5.428;2023-12-04T03:53:44;11.73;;;6.07;;
73747;SDS011;62056;52.130;5.428;2023-12-04T03:56:10;15.70;;;7.10;;
73747;SDS011;62056;52.130;5.428;2023-12-04T03:58:38;13.35;;;7.38;;
73747;SDS011;62056;52.130;5.428;2023-12-04T04:01:05;11.25;;;6.78;;
73747;SDS011;62056;52.130;5.428;2023-12-04T04:03:31;15.75;;;7.45;;
73747;SDS011;62056;52.130;5.428;2023-12-04T04:05:59;13.03;;;7.03;;
73747;SDS011;62056;52.130;5.428;2023-12-04T04:08:25;13.43;;;6.78;;
73747;SDS011;62056;52.130;5.428;2023-12-04T04:10:52;15.38;;;7.43;;
73747;SDS011;62056;52.130;5.428;2023-12-04T04:13:20;9.93;;;6.18;;
73747;SDS011;62056;52.130;5.428;2023-12-04T04:15:46;10.57;;;6.80;;
73747;SDS011;62056;52.130;5.428;2023-12-04T04:18:13;10.47;;;6.03;;
73747;SDS011;62056;52.130;5.428;2023-12-04T04:20:40;13.13;;;6.65;;
73747;SDS011;62056;52.130;5.428;2023-12-04T04:23:06;11.10;;;6.72;;
73747;SDS011;62056;52.130;5.428;2023-12-04T04:25:33;11.70;;;6.75;;
73747;SDS011;62056;52.130;5.428;2023-12-04T04:28:03;15.70;;;6.55;;
73747;SDS011;62056;52.130;5.428;2023-12-04T04:30:30;11.07;;;6.23;;
73747;SDS011;62056;52.130;5.428;2023-12-04T04:32:57;11.88;;;6.65;;
73747;SDS011;62056;52.130;5.428;2023-12-04T04:35:24;14.13;;;7.05;;
73747;SDS011;62056;52.130;5.428;2023-12-04T04:37:50;15.00;;;5.78;;
73747;SDS011;62056;52.130;5.428;2023-12-04T04:40:17;13.38;;;6.63;;
73747;SDS011;62056;52.130;5.428;2023-12-04T04:42:44;9.53;;;5.67;;
73747;SDS011;62056;52.130;5.428;2023-12-04T04:45:11;9.98;;;6.22;;
73747;SDS011;62056;52.130;5.428;2023-12-04T04:47:38;13.27;;;6.03;;
73747;SDS011;62056;52.130;5.428;2023-12-04T04:50:05;9.68;;;5.55;;
73747;SDS011;62056;52.130;5.428;2023-12-04T04:52:32;11.30;;;6.03;;
73747;SDS011;62056;52.130;5.428;2023-12-04T04:54:58;12.70;;;5.97;;
73747;SDS011;62056;52.130;5.428;2023-12-04T04:57:25;10.70;;;5.93;;
73747;SDS011;62056;52.130;5.428;2023-12-04T04:59:52;9.32;;;6.00;;
73747;SDS011;62056;52.130;5.428;2023-12-04T05:02:18;6.57;;;3.85;;
73747;SDS011;62056;52.130;5.428;2023-12-04T05:04:45;9.07;;;4.93;;
73747;SDS011;62056;52.130;5.428;2023-12-04T05:07:12;8.80;;;5.83;;
73747;SDS011;62056;52.130;5.428;2023-12-04T05:09:39;10.23;;;5.85;;
73747;SDS011;62056;52.130;5.428;2023-12-04T05:12:06;13.88;;;6.15;;
73747;SDS011;62056;52.130;5.428;2023-12-04T05:14:33;11.35;;;6.22;;
73747;SDS011;62056;52.130;5.428;2023-12-04T05:17:00;10.15;;;5.70;;
73747;SDS011;62056;52.130;5.428;2023-12-04T05:19:26;10.43;;;6.00;;
73747;SDS011;62056;52.130;5.428;2023-12-04T05:21:53;8.52;;;5.82;;
73747;SDS011;62056;52.130;5.428;2023-12-04T05:24:20;9.95;;;5.53;;
73747;SDS011;62056;52.130;5.428;2023-12-04T05:26:46;7.10;;;4.95;;
73747;SDS011;62056;52.130;5.428;2023-12-04T05:29:13;8.07;;;4.65;;
73747;SDS011;62056;52.130;5.428;2023-12-04T05:31:40;8.63;;;6.00;;
73747;SDS011;62056;52.130;5.428;2023-12-04T05:34:06;10.55;;;5.30;;
73747;SDS011;62056;52.130;5.428;2023-12-04T05:36:33;7.75;;;4.93;;
73747;SDS011;62056;52.130;5.428;2023-12-04T05:39:00;9.23;;;6.38;;
73747;SDS011;62056;52.130;5.428;2023-12-04T05:41:27;9.93;;;5.60;;
73747;SDS011;62056;52.130;5.428;2023-12-04T05:43:53;9.03;;;5.10;;
73747;SDS011;62056;52.130;5.428;2023-12-04T05:46:21;12.52;;;5.90;;
73747;SDS011;62056;52.130;5.428;2023-12-04T05:48:47;9.75;;;5.55;;
73747;SDS011;62056;52.130;5.428;2023-12-04T05:51:15;7.18;;;5.30;;
73747;SDS011;62056;52.130;5.428;2023-12-04T05:53:41;10.90;;;6.07;;
73747;SDS011;62056;52.130;5.428;2023-12-04T05:56:08;7.63;;;5.40;;
73747;SDS011;62056;52.130;5.428;2023-12-04T05:58:35;7.43;;;4.95;;
73747;SDS011;62056;52.130;5.428;2023-12-04T06:01:02;10.43;;;5.97;;
73747;SDS011;62056;52.130;5.428;2023-12-04T06:03:29;10.10;;;5.63;;
73747;SDS011;62056;52.130;5.428;2023-12-04T06:05:56;9.88;;;5.28;;
73747;SDS011;62056;52.130;5.428;2023-12-04T06:08:26;11.50;;;5.03;;
73747;SDS011;62056;52.130;5.428;2023-12-04T06:10:54;9.40;;;5.95;;
73747;SDS011;62056;52.130;5.428;2023-12-04T06:13:20;12.88;;;5.72;;
73747;SDS011;62056;52.130;5.428;2023-12-04T06:15:47;6.60;;;4.40;;
73747;SDS011;62056;52.130;5.428;2023-12-04T06:18:14;8.70;;;5.10;;
73747;SDS011;62056;52.130;5.428;2023-12-04T06:20:40;8.27;;;5.03;;
73747;SDS011;62056;52.130;5.428;2023-12-04T06:23:07;7.60;;;5.85;;
73747;SDS011;62056;52.130;5.428;2023-12-04T06:25:34;9.57;;;6.15;;
73747;SDS011;62056;52.130;5.428;2023-12-04T06:28:01;8.65;;;5.00;;
73747;SDS011;62056;52.130;5.428;2023-12-04T06:30:28;9.18;;;5.28;;
73747;SDS011;62056;52.130;5.428;2023-12-04T06:32:55;7.57;;;4.53;;
73747;SDS011;62056;52.130;5.428;2023-12-04T06:35:22;10.82;;;5.13;;
73747;SDS011;62056;52.130;5.428;2023-12-04T06:37:51;5.55;;;4.05;;
73747;SDS011;62056;52.130;5.428;2023-12-04T06:40:20;7.47;;;4.03;;
73747;SDS011;62056;52.130;5.428;2023-12-04T06:42:48;6.63;;;4.68;;
73747;SDS011;62056;52.130;5.428;2023-12-04T06:45:15;8.03;;;5.50;;
73747;SDS011;62056;52.130;5.428;2023-12-04T06:47:43;6.88;;;5.20;;
73747;SDS011;62056;52.130;5.428;2023-12-04T06:50:12;9.45;;;5.20;;
73747;SDS011;62056;52.130;5.428;2023-12-04T06:52:38;6.68;;;4.60;;
73747;SDS011;62056;52.130;5.428;2023-12-04T06:55:05;7.47;;;5.40;;
73747;SDS011;62056;52.130;5.428;2023-12-04T06:57:32;5.93;;;3.87;;
73747;SDS011;62056;52.130;5.428;2023-12-04T07:00:01;7.20;;;4.00;;
73747;SDS011;62056;52.130;5.428;2023-12-04T07:02:47;7.45;;;4.88;;
73747;SDS011;62056;52.130;5.428;2023-12-04T07:05:16;15.68;;;4.95;;
73747;SDS011;62056;52.130;5.428;2023-12-04T07:07:43;8.18;;;5.22;;
73747;SDS011;62056;52.130;5.428;2023-12-04T07:10:09;9.03;;;5.27;;
73747;SDS011;62056;52.130;5.428;2023-12-04T07:12:41;8.48;;;5.25;;
73747;SDS011;62056;52.130;5.428;2023-12-04T07:15:09;5.63;;;4.25;;
73747;SDS011;62056;52.130;5.428;2023-12-04T07:17:36;6.95;;;4.07;;
73747;SDS011;62056;52.130;5.428;2023-12-04T07:20:02;9.30;;;4.97;;
73747;SDS011;62056;52.130;5.428;2023-12-04T07:22:32;6.63;;;4.37;;
73747;SDS011;62056;52.130;5.428;2023-12-04T07:25:04;5.88;;;4.40;;
73747;SDS011;62056;52.130;5.428;2023-12-04T07:27:33;8.63;;;4.57;;
73747;SDS011;62056;52.130;5.428;2023-12-04T07:30:01;6.47;;;4.38;;
73747;SDS011;62056;52.130;5.428;2023-12-04T07:32:29;6.07;;;4.53;;
73747;SDS011;62056;52.130;5.428;2023-12-04T07:34:56;9.63;;;3.97;;
73747;SDS011;62056;52.130;5.428;2023-12-04T07:37:23;7.63;;;4.28;;
73747;SDS011;62056;52.130;5.428;2023-12-04T07:39:50;6.00;;;4.20;;
73747;SDS011;62056;52.130;5.428;2023-12-04T07:42:17;6.93;;;4.40;;
73747;SDS011;62056;52.130;5.428;2023-12-04T07:44:43;5.15;;;3.28;;
73747;SDS011;62056;52.130;5.428;2023-12-04T07:47:10;7.23;;;4.20;;
73747;SDS011;62056;52.130;5.428;2023-12-04T07:49:37;5.75;;;3.88;;
73747;SDS011;62056;52.130;5.428;2023-12-04T07:52:04;5.53;;;4.18;;
73747;SDS011;62056;52.130;5.428;2023-12-04T07:54:31;5.45;;;3.88;;
73747;SDS011;62056;52.130;5.428;2023-12-04T07:56:57;4.40;;;3.78;;
73747;SDS011;62056;52.130;5.428;2023-12-04T07:59:24;7.53;;;4.30;;
73747;SDS011;62056;52.130;5.428;2023-12-04T08:01:51;5.70;;;4.13;;
73747;SDS011;62056;52.130;5.428;2023-12-04T08:04:18;6.25;;;4.07;;
73747;SDS011;62056;52.130;5.428;2023-12-04T08:06:45;7.07;;;3.67;;
73747;SDS011;62056;52.130;5.428;2023-12-04T08:09:12;5.57;;;3.80;;
73747;SDS011;62056;52.130;5.428;2023-12-04T08:11:39;5.87;;;3.67;;
73747;SDS011;62056;52.130;5.428;2023-12-04T08:14:05;6.63;;;3.92;;
73747;SDS011;62056;52.130;5.428;2023-12-04T08:16:32;8.57;;;4.68;;
73747;SDS011;62056;52.130;5.428;2023-12-04T08:19:01;5.10;;;4.03;;
73747;SDS011;62056;52.130;5.428;2023-12-04T08:21:28;6.75;;;4.15;;
73747;SDS011;62056;52.130;5.428;2023-12-04T08:23:55;4.70;;;2.77;;
73747;SDS011;62056;52.130;5.428;2023-12-04T08:26:22;5.88;;;4.10;;
73747;SDS011;62056;52.130;5.428;2023-12-04T08:28:52;4.55;;;3.70;;
73747;SDS011;62056;52.130;5.428;2023-12-04T08:31:18;6.50;;;3.20;;
73747;SDS011;62056;52.130;5.428;2023-12-04T08:33:45;6.10;;;4.00;;
73747;SDS011;62056;52.130;5.428;2023-12-04T08:36:12;7.80;;;4.13;;
73747;SDS011;62056;52.130;5.428;2023-12-04T08:38:39;7.15;;;3.53;;
73747;SDS011;62056;52.130;5.428;2023-12-04T08:41:06;7.20;;;4.05;;
73747;SDS011;62056;52.130;5.428;2023-12-04T08:43:33;5.40;;;2.95;;
73747;SDS011;62056;52.130;5.428;2023-12-04T08:46:01;4.95;;;3.22;;
73747;SDS011;62056;52.130;5.428;2023-12-04T08:48:28;5.67;;;3.60;;
73747;SDS011;62056;52.130;5.428;2023-12-04T08:50:55;6.25;;;4.30;;
73747;SDS011;62056;52.130;5.428;2023-12-04T08:53:22;4.30;;;3.55;;
73747;SDS011;62056;52.130;5.428;2023-12-04T08:55:49;5.22;;;3.67;;
73747;SDS011;62056;52.130;5.428;2023-12-04T08:58:18;5.10;;;3.50;;
73747;SDS011;62056;52.130;5.428;2023-12-04T09:00:45;5.07;;;3.20;;
73747;SDS011;62056;52.130;5.428;2023-12-04T09:03:12;6.72;;;3.55;;
73747;SDS011;62056;52.130;5.428;2023-12-04T09:05:51;5.13;;;3.70;;
73747;SDS011;62056;52.130;5.428;2023-12-04T09:08:18;4.03;;;3.03;;
73747;SDS011;62056;52.130;5.428;2023-12-04T09:11:01;3.97;;;3.10;;
73747;SDS011;62056;52.130;5.428;2023-12-04T09:13:48;5.77;;;3.87;;
73747;SDS011;62056;52.130;5.428;2023-12-04T09:16:15;6.43;;;3.85;;
73747;SDS011;62056;52.130;5.428;2023-12-04T09:18:41;7.07;;;3.85;;
73747;SDS011;62056;52.130;5.428;2023-12-04T09:21:09;5.38;;;3.33;;
73747;SDS011;62056;52.130;5.428;2023-12-04T09:23:35;6.63;;;3.70;;
73747;SDS011;62056;52.130;5.428;2023-12-04T09:26:02;5.57;;;3.33;;
73747;SDS011;62056;52.130;5.428;2023-12-04T09:28:29;4.80;;;3.72;;
73747;SDS011;62056;52.130;5.428;2023-12-04T09:30:56;9.13;;;4.20;;
73747;SDS011;62056;52.130;5.428;2023-12-04T09:33:24;6.20;;;4.20;;
73747;SDS011;62056;52.130;5.428;2023-12-04T09:35:51;5.22;;;3.58;;
73747;SDS011;62056;52.130;5.428;2023-12-04T09:38:18;5.10;;;3.50;;
73747;SDS011;62056;52.130;5.428;2023-12-04T09:40:44;5.43;;;3.60;;
73747;SDS011;62056;52.130;5.428;2023-12-04T09:43:11;4.45;;;3.22;;
73747;SDS011;62056;52.130;5.428;2023-12-04T09:45:39;3.58;;;3.25;;
73747;SDS011;62056;52.130;5.428;2023-12-04T09:48:07;4.85;;;3.85;;
73747;SDS011;62056;52.130;5.428;2023-12-04T09:50:36;7.13;;;3.60;;
73747;SDS011;62056;52.130;5.428;2023-12-04T09:53:05;5.20;;;3.70;;
73747;SDS011;62056;52.130;5.428;2023-12-04T09:55:36;4.25;;;3.28;;
73747;SDS011;62056;52.130;5.428;2023-12-04T09:58:02;4.38;;;3.17;;
73747;SDS011;62056;52.130;5.428;2023-12-04T10:00:30;5.28;;;3.30;;
73747;SDS011;62056;52.130;5.428;2023-12-04T10:03:00;4.73;;;3.33;;
73747;SDS011;62056;52.130;5.428;2023-12-04T10:05:28;4.25;;;2.50;;
73747;SDS011;62056;52.130;5.428;2023-12-04T10:07:57;3.65;;;3.10;;
73747;SDS011;62056;52.130;5.428;2023-12-04T10:10:24;3.78;;;3.28;;
73747;SDS011;62056;52.130;5.428;2023-12-04T10:12:51;3.95;;;3.30;;
73747;SDS011;62056;52.130;5.428;2023-12-04T10:15:22;3.10;;;2.30;;
73747;SDS011;62056;52.130;5.428;2023-12-04T10:17:49;5.57;;;3.55;;
73747;SDS011;62056;52.130;5.428;2023-12-04T10:20:18;5.43;;;3.47;;
73747;SDS011;62056;52.130;5.428;2023-12-04T10:22:53;4.20;;;3.15;;
73747;SDS011;62056;52.130;5.428;2023-12-04T10:25:26;4.35;;;2.75;;
73747;SDS011;62056;52.130;5.428;2023-12-04T10:28:09;2.80;;;2.33;;
73747;SDS011;62056;52.130;5.428;2023-12-04T10:31:17;4.10;;;3.40;;
73747;SDS011;62056;52.130;5.428;2023-12-04T10:33:44;4.63;;;3.35;;
73747;SDS011;62056;52.130;5.428;2023-12-04T10:36:17;5.18;;;2.75;;
73747;SDS011;62056;52.130;5.428;2023-12-04T10:38:45;4.63;;;3.25;;
73747;SDS011;62056;52.130;5.428;2023-12-04T10:41:13;5.20;;;3.73;;
73747;SDS011;62056;52.130;5.428;2023-12-04T10:43:47;4.53;;;3.30;;
73747;SDS011;62056;52.130;5.428;2023-12-04T10:46:27;3.65;;;3.15;;
73747;SDS011;62056;52.130;5.428;2023-12-04T10:48:58;5.35;;;3.42;;
73747;SDS011;62056;52.130;5.428;2023-12-04T10:51:35;4.18;;;3.45;;
73747;SDS011;62056;52.130;5.428;2023-12-04T10:54:05;8.27;;;3.80;;
73747;SDS011;62056;52.130;5.428;2023-12-04T11:00:48;5.10;;;3.65;;
73747;SDS011;62056;52.130;5.428;2023-12-04T11:03:56;5.18;;;3.78;;
73747;SDS011;62056;52.130;5.428;2023-12-04T11:06:28;3.92;;;3.35;;
73747;SDS011;62056;52.130;5.428;2023-12-04T11:08:57;5.70;;;4.03;;
73747;SDS011;62056;52.130;5.428;2023-12-04T11:11:29;6.32;;;3.70;;
73747;SDS011;62056;52.130;5.428;2023-12-04T11:14:00;6.30;;;3.63;;
73747;SDS011;62056;52.130;5.428;2023-12-04T11:16:41;5.00;;;3.53;;
73747;SDS011;62056;52.130;5.428;2023-12-04T11:19:18;4.78;;;3.40;;
73747;SDS011;62056;52.130;5.428;2023-12-04T11:21:51;5.63;;;3.47;;
73747;SDS011;62056;52.130;5.428;2023-12-04T11:24:19;3.78;;;3.20;;
73747;SDS011;62056;52.130;5.428;2023-12-04T11:26:49;6.85;;;3.80;;
73747;SDS011;62056;52.130;5.428;2023-12-04T11:29:17;8.43;;;4.80;;
73747;SDS011;62056;52.130;5.428;2023-12-04T11:31:45;5.13;;;4.20;;
73747;SDS011;62056;52.130;5.428;2023-12-04T11:34:12;5.60;;;4.13;;
73747;SDS011;62056;52.130;5.428;2023-12-04T11:36:39;8.18;;;4.80;;
73747;SDS011;62056;52.130;5.428;2023-12-04T11:39:10;6.55;;;4.82;;
73747;SDS011;62056;52.130;5.428;2023-12-04T11:41:41;8.05;;;4.03;;
73747;SDS011;62056;52.130;5.428;2023-12-04T11:44:13;5.88;;;3.88;;
73747;SDS011;62056;52.130;5.428;2023-12-04T11:46:56;5.20;;;4.17;;
73747;SDS011;62056;52.130;5.428;2023-12-04T11:49:33;5.80;;;4.07;;
73747;SDS011;62056;52.130;5.428;2023-12-04T11:52:04;6.53;;;4.53;;
73747;SDS011;62056;52.130;5.428;2023-12-04T11:54:55;5.78;;;4.50;;
73747;SDS011;62056;52.130;5.428;2023-12-04T11:57:26;10.30;;;5.63;;
73747;SDS011;62056;52.130;5.428;2023-12-04T12:00:09;9.10;;;4.87;;
73747;SDS011;62056;52.130;5.428;2023-12-04T12:05:42;8.32;;;4.38;;
73747;SDS011;62056;52.130;5.428;2023-12-04T12:08:11;4.75;;;3.95;;
73747;SDS011;62056;52.130;5.428;2023-12-04T12:10:41;9.63;;;4.68;;
73747;SDS011;62056;52.130;5.428;2023-12-04T12:13:08;6.23;;;4.20;;
73747;SDS011;62056;52.130;5.428;2023-12-04T12:15:36;6.93;;;4.18;;
73747;SDS011;62056;52.130;5.428;2023-12-04T12:18:08;5.88;;;4.90;;
73747;SDS011;62056;52.130;5.428;2023-12-04T12:20:37;8.02;;;4.43;;
73747;SDS011;62056;52.130;5.428;2023-12-04T12:23:09;6.57;;;3.72;;
73747;SDS011;62056;52.130;5.428;2023-12-04T12:25:36;4.60;;;3.73;;
73747;SDS011;62056;52.130;5.428;2023-12-04T12:28:03;6.10;;;3.88;;
73747;SDS011;62056;52.130;5.428;2023-12-04T12:30:33;5.43;;;4.78;;
73747;SDS011;62056;52.130;5.428;2023-12-04T12:33:00;8.30;;;4.72;;
73747;SDS011;62056;52.130;5.428;2023-12-04T12:35:29;6.15;;;4.03;;
73747;SDS011;62056;52.130;5.428;2023-12-04T12:37:57;6.87;;;4.23;;
73747;SDS011;62056;52.130;5.428;2023-12-04T12:40:27;5.32;;;3.58;;
73747;SDS011;62056;52.130;5.428;2023-12-04T12:43:03;6.15;;;4.35;;
73747;SDS011;62056;52.130;5.428;2023-12-04T12:45:44;8.13;;;4.60;;
73747;SDS011;62056;52.130;5.428;2023-12-04T12:48:16;8.77;;;5.15;;
73747;SDS011;62056;52.130;5.428;2023-12-04T12:50:59;6.10;;;4.17;;
73747;SDS011;62056;52.130;5.428;2023-12-04T12:53:33;5.93;;;4.97;;
73747;SDS011;62056;52.130;5.428;2023-12-04T12:56:00;5.32;;;4.40;;
73747;SDS011;62056;52.130;5.428;2023-12-04T12:58:29;5.20;;;4.18;;
73747;SDS011;62056;52.130;5.428;2023-12-04T13:01:05;4.60;;;4.20;;
73747;SDS011;62056;52.130;5.428;2023-12-04T13:03:52;7.10;;;4.53;;
73747;SDS011;62056;52.130;5.428;2023-12-04T13:06:20;4.95;;;3.80;;
73747;SDS011;62056;52.130;5.428;2023-12-04T13:08:49;6.65;;;4.40;;
73747;SDS011;62056;52.130;5.428;2023-12-04T13:11:46;7.43;;;4.70;;
73747;SDS011;62056;52.130;5.428;2023-12-04T13:14:14;6.20;;;4.53;;
73747;SDS011;62056;52.130;5.428;2023-12-04T13:16:43;8.10;;;4.90;;
73747;SDS011;62056;52.130;5.428;2023-12-04T13:19:18;5.82;;;4.43;;
73747;SDS011;62056;52.130;5.428;2023-12-04T13:21:59;5.43;;;4.40;;
73747;SDS011;62056;52.130;5.428;2023-12-04T13:24:27;14.82;;;5.80;;
73747;SDS011;62056;52.130;5.428;2023-12-04T13:26:56;5.28;;;4.53;;
73747;SDS011;62056;52.130;5.428;2023-12-04T13:29:24;6.00;;;4.20;;
73747;SDS011;62056;52.130;5.428;2023-12-04T13:31:52;6.85;;;4.50;;
73747;SDS011;62056;52.130;5.428;2023-12-04T13:34:22;7.88;;;4.45;;
73747;SDS011;62056;52.130;5.428;2023-12-04T13:36:49;5.38;;;4.55;;
73747;SDS011;62056;52.130;5.428;2023-12-04T13:39:18;8.10;;;4.72;;
73747;SDS011;62056;52.130;5.428;2023-12-04T13:41:54;9.37;;;3.93;;
73747;SDS011;62056;52.130;5.428;2023-12-04T13:44:45;5.45;;;4.07;;
73747;SDS011;62056;52.130;5.428;2023-12-04T13:47:22;5.95;;;3.97;;
73747;SDS011;62056;52.130;5.428;2023-12-04T13:50:03;6.20;;;4.03;;
73747;SDS011;62056;52.130;5.428;2023-12-04T13:52:50;4.78;;;3.72;;
73747;SDS011;62056;52.130;5.428;2023-12-04T13:55:27;8.07;;;4.80;;
73747;SDS011;62056;52.130;5.428;2023-12-04T13:58:12;6.25;;;4.82;;
73747;SDS011;62056;52.130;5.428;2023-12-04T14:01:00;6.82;;;4.80;;
73747;SDS011;62056;52.130;5.428;2023-12-04T14:03:34;5.03;;;4.03;;
73747;SDS011;62056;52.130;5.428;2023-12-04T14:06:12;8.13;;;4.72;;
73747;SDS011;62056;52.130;5.428;2023-12-04T14:08:55;9.90;;;3.73;;
73747;SDS011;62056;52.130;5.428;2023-12-04T14:11:23;6.50;;;4.78;;
73747;SDS011;62056;52.130;5.428;2023-12-04T14:13:50;6.57;;;4.57;;
73747;SDS011;62056;52.130;5.428;2023-12-04T14:16:22;5.97;;;3.72;;
73747;SDS011;62056;52.130;5.428;2023-12-04T14:18:50;6.25;;;4.57;;
73747;SDS011;62056;52.130;5.428;2023-12-04T14:21:18;6.67;;;4.20;;
73747;SDS011;62056;52.130;5.428;2023-12-04T14:23:45;5.10;;;3.83;;
73747;SDS011;62056;52.130;5.428;2023-12-04T14:26:11;6.30;;;4.43;;
73747;SDS011;62056;52.130;5.428;2023-12-04T14:28:38;5.60;;;4.20;;
73747;SDS011;62056;52.130;5.428;2023-12-04T14:31:19;7.68;;;4.43;;
73747;SDS011;62056;52.130;5.428;2023-12-04T14:34:00;6.83;;;4.97;;
73747;SDS011;62056;52.130;5.428;2023-12-04T14:36:29;10.27;;;4.97;;
73747;SDS011;62056;52.130;5.428;2023-12-04T14:39:00;5.78;;;4.60;;
73747;SDS011;62056;52.130;5.428;2023-12-04T14:41:27;5.55;;;3.95;;
73747;SDS011;62056;52.130;5.428;2023-12-04T14:43:55;5.35;;;3.17;;
73747;SDS011;62056;52.130;5.428;2023-12-04T14:46:23;6.10;;;4.43;;
73747;SDS011;62056;52.130;5.428;2023-12-04T14:48:54;5.25;;;4.07;;
73747;SDS011;62056;52.130;5.428;2023-12-04T14:51:21;6.78;;;4.55;;
73747;SDS011;62056;52.130;5.428;2023-12-04T14:53:49;7.72;;;4.55;;
73747;SDS011;62056;52.130;5.428;2023-12-04T14:56:18;5.05;;;3.72;;
73747;SDS011;62056;52.130;5.428;2023-12-04T14:59:06;6.10;;;3.90;;
73747;SDS011;62056;52.130;5.428;2023-12-04T15:01:51;4.60;;;3.58;;